Telluride, CO

11:47 PM MDT on October 20, 2014 (GMT -0600)
Durango-La Plata County | Change Station
CLOSE
Current Station
Airport
Location: Durango,
Elevation: 6683 ft
Nearby Weather Stations
Active Advisory: Special Statement

Elev 6683 ft 37.14 °N, 107.76 °W | Updated 54 minutes ago

Partly Cloudy
Partly Cloudy
50 °F
Feels Like 50 °F
N
5
Wind Variable Wind from North

Today
High -- | Low -- °F
--% Chance of Precip.
Yesterday
High -- | Low -- °F
Precip. -- in
7:24 AM 6:26 PM
Waning Crescent, 7% visible
Pressure 30.08 in
Visibility 10.0 miles
Clouds Overcast 10000 ft
Dew Point 42 °F
Humidity 74%
Rainfall 0.00 in
Snow Depth 0 in , 0 in , 0 in
UV 0 out of 12
Pollen 1.80 out of 12
Air Quality Not available.
Flu Activity Sporadic
METAR KDRO 210453Z AUTO 36004KT 10SM OVC100 10/06 A3021 RMK AO2 SLP185 T01000056 PWINO

More Conditions Fewer Conditions

Pressure 30.08 in
Visibility 10.0 miles
Clouds Overcast 10000 ft
Dew Point 42 °F
Humidity 74%
Rainfall 0.00 in
Snow Depth 0 in , 0 in , 0 in
UV 0 out of 12
Pollen 1.80 out of 12
Air Quality Not available.
Flu Activity Sporadic
METAR KDRO 210453Z AUTO 36004KT 10SM OVC100 10/06 A3021 RMK AO2 SLP185 T01000056 PWINO

More Conditions Fewer Conditions

10-Day Weather Forecast

Almanac

Astronomy

Oct. 20, 2014 Rise Set
Actual Time 7:24 AM MDT 6:26 PM MDT
Civil Twilight 6:58 AM MDT 6:53 PM MDT
Nautical Twilight 6:27 AM MDT 7:24 PM MDT
Astronomical Twilight 5:56 AM MDT 7:54 PM MDT
Moon 4:18 AM MDT (10/20) 4:48 PM MDT (10/20)
Length of Visible Light 11h 55m
Length of Day
11h 02m
Tomorrow will be 2m 18s shorter.
Waning Crescent, 7% of the Moon is Illuminated
Oct 21
Waning Crescent
Oct 23
New
Oct 30
First Quarter
Nov 6
Full
Nov 14
Last Quarter

Yesterday's Extremes

State Highs State Lows

Community

WunderPhotos

Upload Photos

1,763,613 photos uploaded!

Nearby

Snow Depth

Station Depth Elevation
Red Mountain Pass 0 in 11150 ft
Mineral Creek 0 in 10040 ft
Idarado 0 in 9800 ft
Lizard Head Pass 0 in 10200 ft
El Diente Peak 0 in 10200 ft

Earthquake Activity

City Distance Mag. Time & Date
No recent earthquake activity has been reported nearby.
Minimum magnitude displayed is 2.5.

Coastal Water Temperatures

Place Temperature
No Stations Reporting

Nearby Weather Stations